Time;durP1;ratioP1;P1;durP2;ratioP2;P2;SDS_P1;SDS_P2;PMS_P1;PMS_P2;Temp;Humidity;BMP_temperature;BMP_pressure;BME280_temperature;BME280_humidity;BME280_pressure;Samples;Min_cycle;Max_cycle;Signal;HPM_P1;HPM_P2
2021/12/12 00:02:22;;;;;;;3.30;1.70;;;19.00;38.20;;;;;;5038355;28;20030;-70
2021/12/12 00:04:49;;;;;;;2.53;1.73;;;19.00;38.20;;;;;;5047142;28;20032;-70
2021/12/12 00:07:21;;;;;;;3.55;1.98;;;19.00;38.20;;;;;;5056713;28;20017;-70
2021/12/12 00:09:51;;;;;;;2.42;1.60;;;19.00;38.20;;;;;;5056977;28;20029;-70
2021/12/12 00:12:22;;;;;;;2.35;1.83;;;19.00;38.30;;;;;;5058841;28;20456;-70
2021/12/12 00:14:47;;;;;;;2.55;1.75;;;19.00;38.20;;;;;;5058308;28;20021;-70
2021/12/12 00:17:14;;;;;;;3.70;1.83;;;19.00;38.20;;;;;;5056302;28;20028;-70
2021/12/12 00:19:40;;;;;;;2.22;1.70;;;19.00;38.20;;;;;;5037726;28;20084;-70
2021/12/12 00:22:10;;;;;;;2.42;1.67;;;19.00;38.20;;;;;;5038047;28;20394;-70
2021/12/12 00:24:38;;;;;;;2.65;1.90;;;19.00;39.10;;;;;;5038591;28;20017;-70
2021/12/12 00:27:04;;;;;;;3.33;1.90;;;19.00;38.20;;;;;;5038246;28;20085;-70
2021/12/12 00:29:30;;;;;;;2.45;1.70;;;19.00;38.20;;;;;;5038210;28;20051;-70
2021/12/12 00:31:59;;;;;;;3.00;1.70;;;19.00;38.20;;;;;;5038525;28;20406;-70
2021/12/12 00:34:28;;;;;;;3.47;2.10;;;19.00;38.20;;;;;;5036879;28;20080;-70
2021/12/12 00:36:53;;;;;;;3.45;1.73;;;19.00;38.20;;;;;;5038408;28;20470;-70
2021/12/12 00:39:23;;;;;;;2.72;1.67;;;19.00;38.20;;;;;;5036966;28;20029;-70
2021/12/12 00:41:55;;;;;;;2.60;1.55;;;19.00;38.20;;;;;;5037417;28;20024;-70
2021/12/12 00:44:22;;;;;;;2.28;1.80;;;19.00;38.20;;;;;;5039037;28;20518;-70
2021/12/12 00:46:50;;;;;;;5.22;1.90;;;19.00;38.20;;;;;;5038337;28;20468;-70
2021/12/12 00:49:17;;;;;;;2.83;1.73;;;19.00;38.20;;;;;;5036958;28;20025;-70
2021/12/12 00:51:44;;;;;;;2.50;1.80;;;19.00;38.20;;;;;;5037551;28;20027;-70
2021/12/12 00:54:12;;;;;;;2.08;1.42;;;19.00;38.20;;;;;;5037740;28;20044;-70
2021/12/12 00:56:38;;;;;;;2.42;1.70;;;19.00;38.20;;;;;;5038155;28;20023;-70
2021/12/12 00:59:05;;;;;;;3.30;1.83;;;19.00;38.20;;;;;;5038143;28;20032;-70
2021/12/12 01:01:36;;;;;;;2.33;1.80;;;19.00;38.20;;;;;;5037396;28;20034;-70
2021/12/12 01:04:14;;;;;;;3.25;1.90;;;19.00;38.20;;;;;;5050413;28;20040;-70
2021/12/12 01:06:40;;;;;;;3.85;1.92;;;19.00;38.20;;;;;;5056683;28;20035;-70
2021/12/12 01:09:10;;;;;;;2.40;1.85;;;19.00;38.20;;;;;;5056436;28;20032;-70
2021/12/12 01:11:40;;;;;;;3.40;1.80;;;19.00;38.20;;;;;;5056283;28;20029;-70
2021/12/12 01:14:10;;;;;;;3.28;1.85;;;19.00;38.20;;;;;;5055004;28;20053;-70
2021/12/12 01:16:49;;;;;;;2.80;1.60;;;19.00;38.20;;;;;;5056694;28;20021;-70
2021/12/12 01:19:26;;;;;;;2.92;1.90;;;19.00;38.30;;;;;;5036347;28;20029;-70
2021/12/12 01:21:56;;;;;;;2.83;1.65;;;19.00;38.20;;;;;;5036782;28;20057;-70
2021/12/12 01:24:27;;;;;;;3.03;1.80;;;19.00;38.30;;;;;;5037001;28;20025;-70
2021/12/12 01:26:55;;;;;;;2.30;1.60;;;19.00;38.30;;;;;;5037061;28;20025;-70
2021/12/12 01:29:21;;;;;;;3.05;1.52;;;19.00;38.30;;;;;;5036738;28;20173;-70
2021/12/12 01:31:47;;;;;;;2.70;1.70;;;19.00;38.40;;;;;;5035819;28;20140;-70
2021/12/12 01:34:16;;;;;;;2.33;1.65;;;19.00;38.30;;;;;;5035909;28;20478;-70
2021/12/12 01:39:29;;;;;;;2.65;1.58;;;19.00;38.30;;;;;;5037187;28;20042;-70
2021/12/12 01:42:01;;;;;;;3.42;1.75;;;19.00;38.30;;;;;;5035297;28;20478;-70
2021/12/12 01:44:50;;;;;;;2.55;1.60;;;19.00;38.30;;;;;;5036592;28;20032;-70
2021/12/12 01:47:20;;;;;;;3.67;1.85;;;19.00;38.30;;;;;;5035760;28;20517;-70
2021/12/12 01:49:49;;;;;;;3.25;1.80;;;19.00;38.30;;;;;;5036486;28;20033;-70
2021/12/12 01:52:20;;;;;;;3.05;1.90;;;19.00;38.40;;;;;;5036550;28;20036;-70
2021/12/12 01:54:49;;;;;;;2.38;1.50;;;19.00;38.30;;;;;;5049169;28;20025;-70
2021/12/12 01:57:27;;;;;;;2.33;1.45;;;19.00;38.40;;;;;;5054987;28;20492;-70
2021/12/12 01:59:54;;;;;;;2.58;1.58;;;19.00;38.40;;;;;;5055232;28;20021;-70
2021/12/12 02:02:26;;;;;;;3.45;1.63;;;19.00;38.50;;;;;;5059765;28;20021;-69
2021/12/12 02:04:55;;;;;;;2.45;1.58;;;19.00;38.40;;;;;;5060958;28;20448;-69
2021/12/12 02:07:29;;;;;;;2.83;1.52;;;19.00;38.40;;;;;;5060537;28;20025;-69
2021/12/12 02:09:59;;;;;;;2.85;1.75;;;19.00;38.40;;;;;;5060326;28;20032;-69
2021/12/12 02:12:25;;;;;;;3.60;1.63;;;19.00;38.50;;;;;;5060332;28;20104;-69
2021/12/12 02:14:53;;;;;;;2.60;1.60;;;19.00;38.50;;;;;;5059708;28;20499;-69
2021/12/12 02:17:31;;;;;;;2.80;1.65;;;19.00;38.50;;;;;;5056851;28;20099;-69
2021/12/12 02:20:07;;;;;;;3.40;1.98;;;19.00;38.40;;;;;;5040287;28;20040;-69
2021/12/12 02:36:30;;;;;;;3.58;1.45;;;18.90;38.50;;;;;;5040144;28;20059;-69
2021/12/12 02:38:56;;;;;;;1.98;1.52;;;19.00;38.60;;;;;;5038430;28;20036;-69
2021/12/12 02:41:25;;;;;;;1.98;1.30;;;19.00;38.60;;;;;;5039726;28;20025;-69
2021/12/12 02:43:57;;;;;;;2.65;1.48;;;19.00;38.60;;;;;;5038690;28;20026;-69
2021/12/12 02:46:28;;;;;;;2.63;1.52;;;19.00;38.60;;;;;;5038554;28;20482;-69
2021/12/12 02:49:05;;;;;;;2.65;1.40;;;19.00;38.60;;;;;;5039981;28;20048;-69
2021/12/12 02:51:31;;;;;;;1.90;1.45;;;19.00;38.70;;;;;;5039600;28;20079;-69
2021/12/12 02:53:58;;;;;;;3.03;1.55;;;19.00;38.60;;;;;;5038566;28;20021;-69
2021/12/12 02:56:36;;;;;;;2.88;1.58;;;19.00;38.60;;;;;;5038838;28;20383;-69
2021/12/12 02:59:08;;;;;;;5.07;2.05;;;19.00;38.60;;;;;;5040239;28;20033;-69
2021/12/12 03:02:02;;;;;;;3.72;1.38;;;19.00;38.60;;;;;;5039942;28;20398;-69
2021/12/12 03:04:29;;;;;;;1.90;1.38;;;19.00;38.60;;;;;;5047759;28;20033;-69
2021/12/12 03:06:55;;;;;;;3.33;1.80;;;19.00;38.60;;;;;;5038598;28;20025;-69
2021/12/12 03:09:27;;;;;;;2.67;1.40;;;19.00;38.60;;;;;;5039678;28;20036;-69
2021/12/12 03:11:56;;;;;;;;;;;19.00;38.60;;;;;;5039777;28;20489;-69
2021/12/12 03:14:22;;;;;;;1.98;1.30;;;19.00;38.60;;;;;;5039134;28;19905;-69
2021/12/12 03:16:48;;;;;;;2.92;1.80;;;18.90;38.70;;;;;;5039300;28;20048;-69
2021/12/12 03:19:19;;;;;;;3.22;1.52;;;18.90;38.70;;;;;;5057579;28;20464;-69
2021/12/12 03:21:46;;;;;;;2.13;1.58;;;18.90;38.80;;;;;;5058386;28;20075;-69
2021/12/12 03:24:19;;;;;;;4.18;1.75;;;18.90;38.70;;;;;;5058487;28;20092;-69
2021/12/12 03:26:47;;;;;;;4.22;1.70;;;19.00;38.80;;;;;;5057820;28;20040;-69
2021/12/12 03:29:14;;;;;;;3.08;1.45;;;18.90;38.70;;;;;;5059073;28;20094;-69
2021/12/12 03:31:50;;;;;;;2.80;1.17;;;19.00;38.80;;;;;;5041338;28;20018;-69
2021/12/12 03:34:19;;;;;;;1.83;1.30;;;19.00;38.80;;;;;;5039026;28;20498;-69
2021/12/12 03:36:46;;;;;;;2.67;1.35;;;19.00;38.80;;;;;;5038787;28;20057;-70
2021/12/12 03:39:19;;;;;;;3.05;1.60;;;19.00;38.80;;;;;;5038091;28;20113;-69
2021/12/12 03:41:46;;;;;;;2.75;1.70;;;19.00;38.80;;;;;;5038279;28;20022;-69
2021/12/12 03:44:16;;;;;;;2.47;1.60;;;19.00;38.80;;;;;;5039432;28;20104;-69
2021/12/12 03:46:43;;;;;;;2.03;1.40;;;19.00;38.80;;;;;;5037554;28;20021;-69
2021/12/12 03:49:10;;;;;;;2.85;1.67;;;19.00;38.80;;;;;;5037994;28;20021;-69
2021/12/12 03:51:38;;;;;;;3.00;1.77;;;19.00;38.80;;;;;;5038013;28;20044;-69
2021/12/12 03:54:05;;;;;;;3.20;1.42;;;19.00;38.80;;;;;;5037361;28;20531;-69
2021/12/12 03:56:31;;;;;;;2.63;1.50;;;19.00;38.80;;;;;;5038498;28;20493;-69
2021/12/12 03:58:57;;;;;;;2.17;1.30;;;19.00;39.70;;;;;;5038382;28;20030;-69
2021/12/12 04:01:30;;;;;;;3.05;1.10;;;19.00;38.80;;;;;;5037620;28;20076;-69
2021/12/12 04:04:02;;;;;;;2.45;1.60;;;19.00;38.80;;;;;;5038182;28;20500;-69
2021/12/12 04:06:30;;;;;;;2.38;1.42;;;19.00;38.80;;;;;;5058730;28;20025;-69
2021/12/12 04:08:56;;;;;;;2.50;1.17;;;19.00;38.80;;;;;;5058338;28;20025;-69
2021/12/12 04:11:32;;;;;;;2.95;1.58;;;19.00;38.80;;;;;;5057936;28;20021;-69
2021/12/12 04:13:58;;;;;;;3.28;1.60;;;19.00;38.80;;;;;;5057693;28;20108;-69
2021/12/12 04:16:27;;;;;;;2.03;1.40;;;19.00;38.80;;;;;;5057925;28;20021;-69
2021/12/12 04:18:53;;;;;;;2.60;1.20;;;19.00;38.80;;;;;;5057909;28;20489;-70
2021/12/12 04:21:21;;;;;;;3.30;1.67;;;19.00;38.80;;;;;;5058240;28;20036;-69
2021/12/12 04:23:47;;;;;;;2.42;1.23;;;19.00;38.80;;;;;;5056892;28;20174;-69
2021/12/12 04:26:34;;;;;;;2.42;1.23;;;19.00;38.80;;;;;;5055952;28;20048;-69
2021/12/12 04:29:12;;;;;;;1.90;1.40;;;19.10;38.80;;;;;;5057505;28;20045;-69
2021/12/12 04:31:44;;;;;;;2.08;1.50;;;19.00;38.90;;;;;;5041731;28;20493;-69
2021/12/12 04:34:11;;;;;;;2.35;1.30;;;19.00;38.90;;;;;;5036381;28;20017;-69
2021/12/12 04:36:40;;;;;;;2.13;1.30;;;19.00;38.90;;;;;;5037208;28;20022;-69
2021/12/12 04:39:10;;;;;;;2.33;1.40;;;19.00;38.90;;;;;;5037567;28;20092;-69
2021/12/12 04:41:36;;;;;;;2.72;1.30;;;19.00;38.90;;;;;;5037740;28;20053;-69
2021/12/12 04:44:03;;;;;;;2.22;1.20;;;19.00;38.90;;;;;;5037389;28;20026;-69
2021/12/12 04:49:54;;;;;;;3.40;1.20;;;19.00;38.90;;;;;;5036068;28;20033;-69
2021/12/12 04:52:08;;;;;;;3.10;1.33;;;19.00;38.90;;;;;;5037800;28;20083;-69
2021/12/12 04:54:47;;;;;;;2.85;1.17;;;19.00;38.90;;;;;;5037325;28;20022;-69
2021/12/12 04:57:19;;;;;;;1.60;1.20;;;19.00;38.90;;;;;;5035827;28;20044;-69
2021/12/12 04:59:46;;;;;;;;;;;19.00;39.00;;;;;;5037876;28;20033;-69
2021/12/12 05:02:49;;;;;;;2.35;1.10;;;19.00;39.00;;;;;;5037883;28;20000;-69
2021/12/12 05:05:42;;;;;;;3.47;1.65;;;19.00;39.10;;;;;;5047490;28;20048;-69
2021/12/12 05:08:15;;;;;;;3.38;1.45;;;19.00;39.10;;;;;;5055080;28;20500;-69
2021/12/12 05:10:57;;;;;;;2.20;1.38;;;19.00;39.20;;;;;;5054451;28;20079;-69
2021/12/12 05:13:27;;;;;;;3.00;1.30;;;19.00;39.10;;;;;;5056223;28;20017;-69
2021/12/12 05:16:18;;;;;;;2.78;1.38;;;19.00;39.20;;;;;;5056415;28;20021;-69
2021/12/12 05:18:51;;;;;;;1.85;1.20;;;19.00;39.20;;;;;;5041299;28;20053;-69
2021/12/12 05:21:18;;;;;;;;;;;19.00;39.20;;;;;;5036807;28;20037;-69
2021/12/12 05:23:47;;;;;;;2.45;1.38;;;18.90;39.20;;;;;;5037056;28;19955;-69
2021/12/12 05:26:17;;;;;;;2.25;1.27;;;18.90;39.30;;;;;;5035578;28;20029;-69
2021/12/12 05:28:48;;;;;;;1.90;1.00;;;18.90;40.30;;;;;;5036850;28;20042;-69
2021/12/12 05:31:16;;;;;;;3.17;1.27;;;18.90;39.30;;;;;;5036526;28;20048;-69
2021/12/12 05:33:42;;;;;;;1.58;1.20;;;18.90;39.30;;;;;;5036664;28;20100;-69
2021/12/12 05:36:10;;;;;;;2.20;1.10;;;19.00;39.30;;;;;;5036213;28;20052;-69
2021/12/12 05:38:36;;;;;;;3.40;1.33;;;19.00;39.30;;;;;;5037185;28;20022;-69
2021/12/12 05:41:02;;;;;;;1.85;1.20;;;19.00;39.20;;;;;;5035584;28;20508;-69
2021/12/12 05:43:28;;;;;;;2.25;1.05;;;19.00;39.30;;;;;;5036003;28;20120;-69
2021/12/12 05:45:55;;;;;;;1.42;0.98;;;19.00;39.20;;;;;;5037473;28;20124;-69
2021/12/12 05:48:22;;;;;;;2.25;1.10;;;19.00;39.20;;;;;;5036976;28;20021;-69
2021/12/12 05:50:49;;;;;;;1.70;1.23;;;19.00;39.20;;;;;;5037044;28;20105;-69
2021/12/12 05:53:16;;;;;;;1.20;1.00;;;19.00;39.20;;;;;;5036738;28;20485;-69
2021/12/12 05:55:44;;;;;;;2.65;1.20;;;19.00;39.20;;;;;;5036581;28;20033;-69
2021/12/12 05:58:14;;;;;;;2.42;1.15;;;19.10;39.20;;;;;;5036757;28;20014;-69
2021/12/12 06:00:51;;;;;;;2.25;1.27;;;19.10;39.20;;;;;;5037123;28;20057;-69
2021/12/12 06:03:21;;;;;;;2.47;1.20;;;19.10;39.30;;;;;;5041982;28;20108;-69
2021/12/12 06:05:47;;;;;;;2.47;1.40;;;19.10;39.30;;;;;;5040046;28;20025;-69
2021/12/12 06:08:15;;;;;;;2.45;1.00;;;19.10;39.30;;;;;;5036436;28;20057;-69
2021/12/12 06:10:43;;;;;;;2.40;1.17;;;19.10;39.20;;;;;;5036566;28;20021;-69
2021/12/12 06:13:15;;;;;;;1.90;1.20;;;19.10;39.30;;;;;;5036580;28;20022;-69
2021/12/12 06:15:43;;;;;;;2.45;1.20;;;19.10;39.30;;;;;;5036469;28;20037;-69
2021/12/12 06:18:09;;;;;;;1.70;1.10;;;19.10;39.30;;;;;;5046205;28;20533;-69
2021/12/12 06:20:35;;;;;;;2.42;1.60;;;19.10;39.30;;;;;;5057073;28;20063;-69
2021/12/12 06:23:01;;;;;;;1.13;0.90;;;19.10;40.20;;;;;;5055274;28;20020;-69
2021/12/12 06:25:27;;;;;;;1.55;0.90;;;19.10;39.30;;;;;;5055303;28;20024;-69
2021/12/12 06:27:53;;;;;;;1.75;1.10;;;19.10;39.30;;;;;;5055260;28;20109;-69
2021/12/12 06:30:22;;;;;;;2.15;1.10;;;19.10;39.30;;;;;;5050979;28;20137;-69
2021/12/12 06:32:49;;;;;;;1.17;0.93;;;19.10;39.30;;;;;;5036382;28;20117;-69
2021/12/12 06:35:16;;;;;;;2.40;1.20;;;19.10;39.30;;;;;;5036157;28;20104;-69
2021/12/12 06:37:43;;;;;;;2.40;1.15;;;19.10;39.30;;;;;;5035374;28;20032;-69
2021/12/12 06:40:12;;;;;;;1.88;1.13;;;19.10;39.30;;;;;;5035931;28;20036;-70
2021/12/12 06:42:37;;;;;;;1.92;1.00;;;19.10;39.30;;;;;;5035916;28;20025;-69
2021/12/12 06:45:07;;;;;;;1.88;1.27;;;19.10;39.30;;;;;;5035991;28;20121;-69
2021/12/12 06:47:32;;;;;;;1.83;1.13;;;19.10;39.30;;;;;;5036721;28;20025;-69
2021/12/12 06:49:59;;;;;;;1.55;0.95;;;19.10;39.40;;;;;;5039847;28;20079;-69
2021/12/12 06:52:25;;;;;;;2.95;1.20;;;19.10;39.30;;;;;;5040407;28;20045;-69
2021/12/12 06:54:52;;;;;;;1.55;1.13;;;19.10;39.30;;;;;;5040134;28;20359;-69
2021/12/12 06:57:19;;;;;;;1.73;1.05;;;19.10;39.30;;;;;;5039068;28;20121;-69
2021/12/12 06:59:48;;;;;;;2.15;1.30;;;19.10;39.30;;;;;;5039104;28;20033;-69
2021/12/12 07:02:14;;;;;;;2.75;0.90;;;19.10;39.40;;;;;;5040245;28;20037;-69
2021/12/12 07:04:42;;;;;;;1.52;1.25;;;19.10;39.40;;;;;;5056606;28;20056;-69
2021/12/12 07:07:10;;;;;;;2.22;1.00;;;19.10;39.40;;;;;;5058592;28;20021;-69
2021/12/12 07:09:37;;;;;;;1.85;1.20;;;19.10;39.40;;;;;;5059801;28;20028;-69
2021/12/12 07:12:07;;;;;;;1.50;1.05;;;19.10;39.40;;;;;;5059022;28;20032;-69
2021/12/12 07:14:34;;;;;;;1.45;1.00;;;19.10;39.40;;;;;;5060075;28;20017;-69
2021/12/12 07:17:00;;;;;;;2.35;1.00;;;19.10;39.40;;;;;;5059275;28;20032;-69
2021/12/12 07:19:27;;;;;;;2.05;1.10;;;19.10;39.40;;;;;;5039369;28;20022;-69
2021/12/12 07:21:53;;;;;;;1.88;1.10;;;19.10;39.40;;;;;;5039790;28;20048;-70
2021/12/12 07:24:19;;;;;;;1.25;0.88;;;19.10;39.40;;;;;;5038370;28;20124;-70
2021/12/12 07:26:45;;;;;;;1.33;1.00;;;19.10;39.40;;;;;;5039319;28;20105;-69
2021/12/12 07:29:12;;;;;;;1.88;1.20;;;19.10;39.50;;;;;;5037670;28;20215;-69
2021/12/12 07:31:39;;;;;;;1.40;1.00;;;19.10;39.40;;;;;;5039152;28;20521;-69
2021/12/12 07:34:13;;;;;;;1.60;1.02;;;19.10;39.40;;;;;;5039385;28;20022;-69
2021/12/12 07:36:52;;;;;;;1.88;1.02;;;19.10;40.40;;;;;;5037252;28;20027;-69
2021/12/12 07:39:19;;;;;;;1.60;0.90;;;19.10;39.40;;;;;;5038985;28;20482;-69
2021/12/12 07:41:46;;;;;;;1.63;0.95;;;19.10;39.50;;;;;;5037469;28;20032;-69
2021/12/12 07:44:16;;;;;;;1.10;0.82;;;19.10;39.50;;;;;;5038850;28;20036;-69
2021/12/12 07:46:43;;;;;;;0.90;0.80;;;19.10;39.50;;;;;;5039135;28;20061;-69
2021/12/12 07:49:09;;;;;;;1.25;1.00;;;19.10;39.50;;;;;;5037731;28;20440;-69
2021/12/12 07:51:39;;;;;;;1.15;1.00;;;19.10;39.50;;;;;;5037554;28;20017;-69
2021/12/12 07:54:05;;;;;;;2.13;1.08;;;19.10;39.50;;;;;;5045725;28;20067;-69
2021/12/12 07:56:34;;;;;;;1.23;0.80;;;19.20;39.60;;;;;;5058779;28;20021;-70
2021/12/12 07:59:02;;;;;;;3.17;1.00;;;19.20;39.60;;;;;;5059021;28;20025;-69
2021/12/12 08:01:28;;;;;;;1.80;1.10;;;19.10;39.50;;;;;;5057876;28;20051;-69
2021/12/12 08:03:56;;;;;;;1.95;0.82;;;19.10;39.60;;;;;;5057651;28;20029;-69
2021/12/12 08:06:23;;;;;;;1.50;0.93;;;19.10;39.60;;;;;;5037822;28;20097;-69
2021/12/12 08:08:49;;;;;;;1.63;1.10;;;19.10;39.60;;;;;;5038596;28;20109;-69
2021/12/12 08:11:18;;;;;;;1.10;0.90;;;19.10;39.60;;;;;;5039070;28;20049;-69
2021/12/12 08:13:44;;;;;;;1.20;0.90;;;19.20;39.70;;;;;;5036959;28;20017;-69
2021/12/12 08:16:10;;;;;;;2.13;1.20;;;19.20;39.70;;;;;;5037560;28;20028;-69
2021/12/12 08:18:38;;;;;;;1.05;0.80;;;19.10;39.60;;;;;;5051696;28;20192;-69
2021/12/12 08:21:04;;;;;;;0.93;0.85;;;19.20;39.70;;;;;;5057807;28;20120;-69
2021/12/12 08:23:31;;;;;;;1.48;1.00;;;19.10;39.70;;;;;;5056922;28;20029;-69
2021/12/12 08:25:57;;;;;;;1.55;0.90;;;19.20;39.70;;;;;;5058486;28;20029;-69
2021/12/12 08:28:23;;;;;;;1.13;0.90;;;19.20;39.70;;;;;;5057422;28;20055;-69
2021/12/12 08:30:51;;;;;;;1.00;0.80;;;19.20;39.80;;;;;;5048815;28;20100;-69
2021/12/12 08:33:17;;;;;;;0.77;0.75;;;19.20;39.70;;;;;;5038159;28;20048;-69
2021/12/12 08:35:43;;;;;;;1.58;0.82;;;19.20;39.80;;;;;;5038499;28;20096;-69
2021/12/12 08:38:11;;;;;;;1.63;1.25;;;19.20;39.80;;;;;;5038335;28;20105;-69
2021/12/12 08:40:45;;;;;;;1.70;0.93;;;19.20;39.80;;;;;;5037114;28;20033;-69
2021/12/12 08:43:13;;;;;;;1.83;1.10;;;19.20;39.80;;;;;;5038025;28;20037;-69
2021/12/12 08:45:44;;;;;;;0.85;0.80;;;19.20;39.80;;;;;;5037806;28;20018;-69
2021/12/12 08:48:10;;;;;;;1.50;1.00;;;19.20;39.80;;;;;;5038101;28;20021;-69
2021/12/12 08:50:38;;;;;;;1.08;0.80;;;19.20;39.80;;;;;;5036662;28;20083;-69
2021/12/12 08:53:07;;;;;;;1.05;0.75;;;19.20;39.80;;;;;;5037238;28;20382;-69
2021/12/12 08:55:39;;;;;;;1.45;0.90;;;19.20;39.80;;;;;;5037663;28;20493;-69
2021/12/12 08:58:15;;;;;;;1.80;1.08;;;19.20;39.90;;;;;;5038019;28;20028;-69
2021/12/12 09:00:49;;;;;;;0.98;0.90;;;19.20;39.80;;;;;;5037148;28;20021;-69
2021/12/12 09:03:21;;;;;;;1.33;1.00;;;19.20;39.90;;;;;;5037986;28;20021;-69
2021/12/12 09:05:47;;;;;;;1.63;0.93;;;19.20;40.00;;;;;;5055169;28;20032;-69
2021/12/12 09:08:31;;;;;;;2.70;0.88;;;19.20;40.00;;;;;;5058122;28;20025;-69
2021/12/12 09:11:28;;;;;;;1.50;0.80;;;19.20;39.90;;;;;;5057553;28;20531;-69
2021/12/12 09:14:18;;;;;;;1.20;0.80;;;19.20;39.90;;;;;;5049861;28;20063;-69
2021/12/12 09:16:49;;;;;;;2.45;1.00;;;19.20;40.00;;;;;;5056346;28;20106;-69
2021/12/12 09:19:18;;;;;;;1.17;0.88;;;19.20;40.10;;;;;;5056490;28;20106;-69
2021/12/12 09:21:56;;;;;;;1.13;0.80;;;19.10;40.00;;;;;;5057497;28;20044;-69
2021/12/12 09:24:47;;;;;;;1.55;0.98;;;19.20;40.00;;;;;;5058306;28;20021;-69
2021/12/12 09:27:27;;;;;;;1.38;0.80;;;19.20;40.10;;;;;;5055931;28;20041;-69
2021/12/12 09:30:02;;;;;;;1.40;0.90;;;19.20;40.10;;;;;;5055246;28;20033;-69
2021/12/12 09:32:49;;;;;;;1.00;0.90;;;19.20;40.10;;;;;;5038051;28;20045;-69
2021/12/12 09:35:29;;;;;;;1.63;1.00;;;19.20;40.10;;;;;;5036858;28;20026;-69
2021/12/12 09:38:06;;;;;;;2.10;0.85;;;19.20;40.10;;;;;;5038065;28;20044;-69
2021/12/12 09:40:35;;;;;;;1.33;0.90;;;19.20;40.20;;;;;;5037314;28;20022;-69
2021/12/12 09:43:30;;;;;;;1.20;0.90;;;19.20;40.20;;;;;;5037413;28;20481;-69
2021/12/12 09:46:06;;;;;;;0.85;0.68;;;19.20;40.10;;;;;;5037852;28;20052;-69
2021/12/12 09:52:18;;;;;;;1.65;1.00;;;19.20;40.20;;;;;;5037677;28;20529;-69
2021/12/12 09:54:52;;;;;;;0.85;0.68;;;19.20;40.20;;;;;;5036911;28;20021;-69
2021/12/12 09:57:33;;;;;;;1.58;1.00;;;19.20;40.30;;;;;;5037656;28;20029;-69
2021/12/12 10:00:26;;;;;;;2.08;1.00;;;19.20;40.30;;;;;;5037367;28;20056;-69
2021/12/12 10:03:11;;;;;;;1.10;0.82;;;19.20;40.30;;;;;;5055465;28;20025;-69
2021/12/12 10:05:51;;;;;;;1.73;1.20;;;19.20;40.30;;;;;;5057321;28;20032;-69
2021/12/12 10:08:45;;;;;;;1.27;0.95;;;19.20;40.40;;;;;;5056735;28;20381;-69
2021/12/12 10:11:24;;;;;;;0.85;0.70;;;19.20;40.40;;;;;;5057738;28;20029;-69
2021/12/12 10:14:11;;;;;;;1.83;1.08;;;19.20;40.40;;;;;;5056082;28;20129;-69
2021/12/12 10:16:47;;;;;;;0.80;0.80;;;19.20;40.40;;;;;;5057771;28;20071;-70
2021/12/12 10:19:42;;;;;;;1.75;1.02;;;19.20;40.40;;;;;;5039694;28;20025;-69
2021/12/12 10:22:29;;;;;;;1.60;0.68;;;19.20;40.40;;;;;;5037869;28;20393;-69
2021/12/12 10:25:11;;;;;;;1.40;0.80;;;19.20;40.40;;;;;;5040764;28;20049;-69
2021/12/12 10:27:52;;;;;;;1.05;0.80;;;19.20;40.50;;;;;;5041538;28;20057;-69
2021/12/12 10:30:26;;;;;;;1.92;0.93;;;19.20;41.40;;;;;;5040954;28;20061;-69
2021/12/12 10:33:43;;;;;;;1.58;1.00;;;19.20;40.50;;;;;;5039625;28;20049;-69
2021/12/12 10:36:37;;;;;;;1.38;0.88;;;19.20;40.50;;;;;;5029050;28;20041;-69
2021/12/12 10:39:05;;;;;;;1.15;0.80;;;19.20;40.50;;;;;;5040376;28;20037;-69
2021/12/12 10:41:38;;;;;;;1.73;0.95;;;19.20;40.60;;;;;;5039592;28;20026;-69
2021/12/12 10:44:13;;;;;;;1.75;0.80;;;19.20;40.60;;;;;;5040780;28;20028;-69
2021/12/12 10:46:50;;;;;;;0.90;0.70;;;19.30;40.60;;;;;;5039794;28;20094;-69
2021/12/12 10:49:23;;;;;;;1.40;1.00;;;19.20;40.60;;;;;;5040586;28;20021;-69
2021/12/12 10:52:03;;;;;;;0.82;0.70;;;19.30;40.60;;;;;;5039292;28;20025;-69
2021/12/12 10:54:37;;;;;;;1.40;0.82;;;19.30;40.70;;;;;;5040810;28;20033;-70
2021/12/12 10:57:13;;;;;;;1.27;0.82;;;19.30;40.60;;;;;;5040612;28;20053;-69
2021/12/12 11:00:00;;;;;;;2.10;0.75;;;19.30;40.70;;;;;;5041173;28;20055;-69
2021/12/12 11:02:32;;;;;;;1.08;0.90;;;19.30;40.60;;;;;;5039976;28;20486;-69
2021/12/12 11:05:01;;;;;;;;;;;19.30;40.70;;;;;;5049506;28;20036;-69
2021/12/12 11:07:37;;;;;;;1.08;0.73;;;19.30;40.70;;;;;;5041209;28;19909;-69
2021/12/12 11:10:09;;;;;;;1.08;0.80;;;19.20;40.80;;;;;;5040916;28;20116;-69
2021/12/12 11:12:48;;;;;;;1.83;1.00;;;19.20;40.80;;;;;;5039659;28;20077;-69
2021/12/12 11:15:24;;;;;;;1.73;0.82;;;19.20;40.70;;;;;;5040276;28;20107;-69
2021/12/12 11:18:06;;;;;;;1.42;0.70;;;19.20;40.70;;;;;;5039409;28;20029;-69
2021/12/12 11:20:48;;;;;;;1.80;1.02;;;19.30;40.80;;;;;;5038839;28;20033;-69
2021/12/12 11:23:26;;;;;;;;;;;19.30;40.80;;;;;;5040308;28;20021;-69
2021/12/12 11:26:03;;;;;;;0.73;0.70;;;19.20;40.90;;;;;;5038513;28;19913;-69
2021/12/12 11:28:43;;;;;;;1.27;0.93;;;19.20;40.90;;;;;;5038461;28;20049;-69
2021/12/12 11:31:35;;;;;;;1.27;0.80;;;19.20;41.00;;;;;;5039398;28;20462;-69
2021/12/12 11:34:03;;;;;;;0.82;0.70;;;19.20;40.90;;;;;;5039395;28;20072;-69
2021/12/12 11:36:43;;;;;;;1.08;0.73;;;19.30;41.00;;;;;;5038051;28;20112;-69
2021/12/12 11:39:27;;;;;;;1.45;0.93;;;19.20;40.90;;;;;;5038161;28;20029;-70
2021/12/12 11:42:08;;;;;;;1.85;0.88;;;19.30;41.40;;;;;;5039644;28;20026;-69
2021/12/12 11:44:41;;;;;;;1.20;0.80;;;19.30;40.90;;;;;;5038167;28;20060;-69
2021/12/12 11:47:10;;;;;;;0.75;0.63;;;19.30;41.90;;;;;;5037990;28;20097;-69
2021/12/12 11:49:50;;;;;;;1.55;0.80;;;19.30;40.90;;;;;;5039570;28;20022;-69
2021/12/12 11:52:41;;;;;;;0.85;0.70;;;19.30;40.90;;;;;;5039280;28;20495;-69
2021/12/12 11:55:37;;;;;;;0.80;0.68;;;19.30;40.90;;;;;;5053675;28;20029;-69
2021/12/12 11:58:20;;;;;;;1.17;0.82;;;19.30;40.90;;;;;;5058807;28;20020;-69
2021/12/12 12:00:52;;;;;;;1.77;0.80;;;19.30;41.00;;;;;;5058400;28;20021;-69
2021/12/12 12:03:27;;;;;;;0.73;0.70;;;19.30;41.00;;;;;;5057368;28;20029;-69
2021/12/12 12:05:58;;;;;;;1.00;0.80;;;19.30;41.10;;;;;;5058450;28;20017;-69
2021/12/12 12:08:35;;;;;;;1.10;0.80;;;19.30;41.10;;;;;;5057614;28;20028;-69
2021/12/12 12:11:17;;;;;;;1.58;0.80;;;19.30;41.00;;;;;;5057816;28;20424;-69
2021/12/12 12:13:56;;;;;;;0.93;0.68;;;19.30;41.10;;;;;;5056938;28;20047;-69
2021/12/12 12:16:55;;;;;;;0.95;0.75;;;19.40;41.10;;;;;;5058230;28;20057;-69
2021/12/12 12:19:59;;;;;;;0.82;0.70;;;19.40;41.10;;;;;;5039679;28;20035;-69
2021/12/12 12:22:45;;;;;;;0.80;0.60;;;19.40;41.10;;;;;;5040228;28;20033;-69
2021/12/12 12:25:28;;;;;;;1.33;0.70;;;19.30;41.10;;;;;;5040439;28;20033;-69
2021/12/12 12:28:06;;;;;;;1.05;0.70;;;19.30;41.10;;;;;;5039752;28;20037;-69
2021/12/12 12:30:31;;;;;;;0.75;0.63;;;19.40;41.20;;;;;;5040222;28;20036;-69
2021/12/12 12:33:18;;;;;;;1.90;1.05;;;19.30;41.20;;;;;;5040315;28;20061;-69
2021/12/12 12:35:58;;;;;;;1.15;0.77;;;19.40;41.20;;;;;;5039709;28;20037;-70
2021/12/12 12:39:01;;;;;;;0.88;0.60;;;19.40;41.20;;;;;;5040249;28;20036;-69
2021/12/12 12:41:33;;;;;;;;;;;19.40;41.20;;;;;;5041248;28;20040;-69
2021/12/12 12:44:36;;;;;;;0.93;0.73;;;19.30;41.30;;;;;;5040646;28;19905;-69
2021/12/12 12:47:39;;;;;;;0.90;0.70;;;19.30;41.30;;;;;;5039558;28;20034;-69
2021/12/12 12:50:35;;;;;;;0.93;0.77;;;19.30;41.40;;;;;;5039664;28;20033;-69
2021/12/12 12:53:30;;;;;;;0.98;0.70;;;19.30;41.50;;;;;;5039500;28;20067;-69
2021/12/12 12:56:44;;;;;;;0.85;0.60;;;19.30;41.50;;;;;;5038003;28;20031;-69
2021/12/12 12:59:32;;;;;;;1.08;0.80;;;19.30;41.50;;;;;;5036947;28;20041;-69
2021/12/12 13:02:11;;;;;;;1.42;0.70;;;19.30;41.50;;;;;;5039531;28;20048;-69
2021/12/12 13:04:59;;;;;;;0.65;0.65;;;19.40;41.60;;;;;;5049527;28;20014;-69
2021/12/12 13:07:40;;;;;;;1.10;0.75;;;19.40;41.50;;;;;;5038438;28;20490;-69
2021/12/12 13:10:24;;;;;;;0.60;0.60;;;19.40;41.50;;;;;;5038085;28;20033;-69
2021/12/12 13:13:12;;;;;;;0.90;0.70;;;19.40;41.50;;;;;;5037703;28;20045;-69
2021/12/12 13:15:49;;;;;;;1.02;0.73;;;19.40;41.60;;;;;;5038981;28;20048;-69
2021/12/12 13:18:24;;;;;;;0.98;0.68;;;19.40;41.60;;;;;;5048262;28;20074;-69
2021/12/12 13:21:15;;;;;;;0.70;0.70;;;19.40;41.50;;;;;;5058158;28;20166;-69
2021/12/12 13:24:04;;;;;;;0.82;0.75;;;19.40;41.60;;;;;;5037607;28;20040;-69
2021/12/12 13:26:58;;;;;;;0.88;0.65;;;19.40;41.50;;;;;;5057729;28;20074;-69
2021/12/12 13:29:50;;;;;;;0.60;0.60;;;19.40;41.60;;;;;;5058123;28;20029;-69
2021/12/12 13:32:35;;;;;;;0.73;0.60;;;19.40;41.60;;;;;;5037871;28;20085;-69
2021/12/12 13:35:41;;;;;;;1.70;0.77;;;19.40;41.60;;;;;;5036770;28;20029;-69
2021/12/12 13:38:17;;;;;;;1.65;0.68;;;19.40;41.60;;;;;;5038017;28;20085;-69
2021/12/12 13:41:05;;;;;;;0.95;0.60;;;19.40;41.70;;;;;;5037331;28;20057;-69
2021/12/12 13:43:49;;;;;;;0.80;0.80;;;19.40;41.60;;;;;;5038400;28;20378;-69
2021/12/12 13:46:39;;;;;;;0.93;0.73;;;19.40;41.60;;;;;;5037687;28;20048;-69